sensor_id;sensor_type;location;lat;lon;timestamp;P1;durP1;ratioP1;P2;durP2;ratioP2
78612;SDS011;67933;51.060;3.638;2023-12-14T00:01:42;48.60;;;16.40;;
78612;SDS011;67933;51.060;3.638;2023-12-14T00:04:08;47.90;;;17.15;;
78612;SDS011;67933;51.060;3.638;2023-12-14T00:06:33;45.38;;;16.77;;
78612;SDS011;67933;51.060;3.638;2023-12-14T00:08:59;50.13;;;17.15;;
78612;SDS011;67933;51.060;3.638;2023-12-14T00:11:24;47.33;;;15.65;;
78612;SDS011;67933;51.060;3.638;2023-12-14T00:13:49;47.20;;;16.65;;
78612;SDS011;67933;51.060;3.638;2023-12-14T00:16:15;51.35;;;16.10;;
78612;SDS011;67933;51.060;3.638;2023-12-14T00:18:40;55.30;;;18.38;;
78612;SDS011;67933;51.060;3.638;2023-12-14T00:21:06;51.05;;;16.48;;
78612;SDS011;67933;51.060;3.638;2023-12-14T00:23:33;52.58;;;16.65;;
78612;SDS011;67933;51.060;3.638;2023-12-14T00:25:59;52.85;;;18.15;;
78612;SDS011;67933;51.060;3.638;2023-12-14T00:28:24;60.60;;;19.75;;
78612;SDS011;67933;51.060;3.638;2023-12-14T00:30:49;57.50;;;17.48;;
78612;SDS011;67933;51.060;3.638;2023-12-14T00:33:15;59.70;;;18.52;;
78612;SDS011;67933;51.060;3.638;2023-12-14T00:35:40;57.90;;;20.77;;
78612;SDS011;67933;51.060;3.638;2023-12-14T00:38:06;59.85;;;19.30;;
78612;SDS011;67933;51.060;3.638;2023-12-14T00:40:31;56.83;;;19.02;;
78612;SDS011;67933;51.060;3.638;2023-12-14T00:42:56;54.70;;;18.48;;
78612;SDS011;67933;51.060;3.638;2023-12-14T00:45:22;63.45;;;19.90;;
78612;SDS011;67933;51.060;3.638;2023-12-14T00:47:47;47.30;;;16.35;;
78612;SDS011;67933;51.060;3.638;2023-12-14T00:50:12;39.35;;;14.93;;
78612;SDS011;67933;51.060;3.638;2023-12-14T00:52:38;30.33;;;13.60;;
78612;SDS011;67933;51.060;3.638;2023-12-14T00:55:03;32.58;;;12.38;;
78612;SDS011;67933;51.060;3.638;2023-12-14T00:57:29;28.70;;;11.55;;
78612;SDS011;67933;51.060;3.638;2023-12-14T00:59:54;30.23;;;11.32;;
78612;SDS011;67933;51.060;3.638;2023-12-14T01:02:20;27.60;;;11.38;;
78612;SDS011;67933;51.060;3.638;2023-12-14T01:04:45;29.05;;;12.40;;
78612;SDS011;67933;51.060;3.638;2023-12-14T01:07:11;27.98;;;11.55;;
78612;SDS011;67933;51.060;3.638;2023-12-14T01:09:36;27.52;;;13.23;;
78612;SDS011;67933;51.060;3.638;2023-12-14T01:12:01;29.27;;;12.48;;
78612;SDS011;67933;51.060;3.638;2023-12-14T01:14:27;31.20;;;12.82;;
78612;SDS011;67933;51.060;3.638;2023-12-14T01:16:52;24.95;;;11.70;;
78612;SDS011;67933;51.060;3.638;2023-12-14T01:19:17;27.45;;;13.20;;
78612;SDS011;67933;51.060;3.638;2023-12-14T01:21:43;29.35;;;13.00;;
78612;SDS011;67933;51.060;3.638;2023-12-14T01:24:09;25.25;;;12.18;;
78612;SDS011;67933;51.060;3.638;2023-12-14T01:26:34;26.80;;;11.73;;
78612;SDS011;67933;51.060;3.638;2023-12-14T01:29:00;25.70;;;11.73;;
78612;SDS011;67933;51.060;3.638;2023-12-14T01:31:25;26.60;;;12.32;;
78612;SDS011;67933;51.060;3.638;2023-12-14T01:33:51;24.80;;;11.02;;
78612;SDS011;67933;51.060;3.638;2023-12-14T01:36:23;25.45;;;11.20;;
78612;SDS011;67933;51.060;3.638;2023-12-14T01:38:50;23.00;;;9.90;;
78612;SDS011;67933;51.060;3.638;2023-12-14T01:41:15;22.05;;;10.30;;
78612;SDS011;67933;51.060;3.638;2023-12-14T01:43:41;22.20;;;9.70;;
78612;SDS011;67933;51.060;3.638;2023-12-14T01:46:06;22.50;;;9.52;;
78612;SDS011;67933;51.060;3.638;2023-12-14T01:48:32;19.55;;;9.85;;
78612;SDS011;67933;51.060;3.638;2023-12-14T01:50:57;17.77;;;8.23;;
78612;SDS011;67933;51.060;3.638;2023-12-14T01:53:23;19.58;;;8.98;;
78612;SDS011;67933;51.060;3.638;2023-12-14T01:55:48;16.55;;;8.32;;
78612;SDS011;67933;51.060;3.638;2023-12-14T01:58:14;20.58;;;9.18;;
78612;SDS011;67933;51.060;3.638;2023-12-14T02:00:41;21.13;;;9.13;;
78612;SDS011;67933;51.060;3.638;2023-12-14T02:03:11;21.55;;;9.15;;
78612;SDS011;67933;51.060;3.638;2023-12-14T02:05:37;18.33;;;8.95;;
78612;SDS011;67933;51.060;3.638;2023-12-14T02:08:02;20.83;;;9.48;;
78612;SDS011;67933;51.060;3.638;2023-12-14T02:10:28;20.23;;;9.45;;
78612;SDS011;67933;51.060;3.638;2023-12-14T02:12:53;17.15;;;9.20;;
78612;SDS011;67933;51.060;3.638;2023-12-14T02:15:18;15.05;;;8.25;;
78612;SDS011;67933;51.060;3.638;2023-12-14T02:17:45;16.40;;;8.27;;
78612;SDS011;67933;51.060;3.638;2023-12-14T02:20:10;13.75;;;8.02;;
78612;SDS011;67933;51.060;3.638;2023-12-14T02:22:48;15.95;;;7.80;;
78612;SDS011;67933;51.060;3.638;2023-12-14T02:25:17;14.40;;;7.95;;
78612;SDS011;67933;51.060;3.638;2023-12-14T02:27:42;14.35;;;7.55;;
78612;SDS011;67933;51.060;3.638;2023-12-14T02:30:08;13.35;;;6.80;;
78612;SDS011;67933;51.060;3.638;2023-12-14T02:32:34;12.50;;;6.95;;
78612;SDS011;67933;51.060;3.638;2023-12-14T02:34:59;15.98;;;7.05;;
78612;SDS011;67933;51.060;3.638;2023-12-14T02:37:25;11.27;;;6.63;;
78612;SDS011;67933;51.060;3.638;2023-12-14T02:39:50;12.85;;;6.53;;
78612;SDS011;67933;51.060;3.638;2023-12-14T02:42:16;12.45;;;6.32;;
78612;SDS011;67933;51.060;3.638;2023-12-14T02:44:41;14.60;;;7.00;;
78612;SDS011;67933;51.060;3.638;2023-12-14T02:47:06;11.23;;;6.25;;
78612;SDS011;67933;51.060;3.638;2023-12-14T02:49:32;9.60;;;5.60;;
78612;SDS011;67933;51.060;3.638;2023-12-14T02:51:58;11.95;;;6.13;;
78612;SDS011;67933;51.060;3.638;2023-12-14T02:54:24;11.25;;;6.45;;
78612;SDS011;67933;51.060;3.638;2023-12-14T02:56:49;11.35;;;5.72;;
78612;SDS011;67933;51.060;3.638;2023-12-14T02:59:14;12.00;;;6.05;;
78612;SDS011;67933;51.060;3.638;2023-12-14T03:01:40;11.68;;;5.63;;
78612;SDS011;67933;51.060;3.638;2023-12-14T03:04:06;9.88;;;5.50;;
78612;SDS011;67933;51.060;3.638;2023-12-14T03:06:32;11.15;;;6.03;;
78612;SDS011;67933;51.060;3.638;2023-12-14T03:08:57;12.18;;;5.85;;
78612;SDS011;67933;51.060;3.638;2023-12-14T03:11:23;11.80;;;5.13;;
78612;SDS011;67933;51.060;3.638;2023-12-14T03:13:49;12.63;;;5.43;;
78612;SDS011;67933;51.060;3.638;2023-12-14T03:16:14;10.27;;;5.30;;
78612;SDS011;67933;51.060;3.638;2023-12-14T03:18:41;9.80;;;5.18;;
78612;SDS011;67933;51.060;3.638;2023-12-14T03:21:07;11.38;;;5.95;;
78612;SDS011;67933;51.060;3.638;2023-12-14T03:23:34;11.13;;;5.65;;
78612;SDS011;67933;51.060;3.638;2023-12-14T03:25:59;10.50;;;5.82;;
78612;SDS011;67933;51.060;3.638;2023-12-14T03:28:24;11.55;;;5.15;;
78612;SDS011;67933;51.060;3.638;2023-12-14T03:30:50;10.10;;;5.68;;
78612;SDS011;67933;51.060;3.638;2023-12-14T03:33:15;8.98;;;4.95;;
78612;SDS011;67933;51.060;3.638;2023-12-14T03:35:41;12.25;;;5.45;;
78612;SDS011;67933;51.060;3.638;2023-12-14T03:38:07;9.80;;;5.75;;
78612;SDS011;67933;51.060;3.638;2023-12-14T03:40:33;10.85;;;5.32;;
78612;SDS011;67933;51.060;3.638;2023-12-14T03:42:58;7.05;;;4.75;;
78612;SDS011;67933;51.060;3.638;2023-12-14T03:45:23;12.27;;;5.03;;
78612;SDS011;67933;51.060;3.638;2023-12-14T03:47:49;10.93;;;5.43;;
78612;SDS011;67933;51.060;3.638;2023-12-14T03:50:14;9.98;;;4.90;;
78612;SDS011;67933;51.060;3.638;2023-12-14T03:52:40;9.75;;;5.40;;
78612;SDS011;67933;51.060;3.638;2023-12-14T03:55:06;10.02;;;4.97;;
78612;SDS011;67933;51.060;3.638;2023-12-14T03:57:31;12.38;;;5.43;;
78612;SDS011;67933;51.060;3.638;2023-12-14T03:59:57;12.57;;;5.55;;
78612;SDS011;67933;51.060;3.638;2023-12-14T04:02:22;9.63;;;5.93;;
78612;SDS011;67933;51.060;3.638;2023-12-14T04:04:48;11.27;;;5.57;;
78612;SDS011;67933;51.060;3.638;2023-12-14T04:07:13;12.68;;;6.10;;
78612;SDS011;67933;51.060;3.638;2023-12-14T04:09:39;14.88;;;6.60;;
78612;SDS011;67933;51.060;3.638;2023-12-14T04:12:04;11.25;;;5.47;;
78612;SDS011;67933;51.060;3.638;2023-12-14T04:14:30;9.43;;;5.35;;
78612;SDS011;67933;51.060;3.638;2023-12-14T04:16:55;13.35;;;5.40;;
78612;SDS011;67933;51.060;3.638;2023-12-14T04:19:20;14.75;;;6.43;;
78612;SDS011;67933;51.060;3.638;2023-12-14T04:21:47;10.32;;;5.57;;
78612;SDS011;67933;51.060;3.638;2023-12-14T04:24:12;12.07;;;5.30;;
78612;SDS011;67933;51.060;3.638;2023-12-14T04:26:38;12.30;;;5.32;;
78612;SDS011;67933;51.060;3.638;2023-12-14T04:29:05;10.23;;;5.70;;
78612;SDS011;67933;51.060;3.638;2023-12-14T04:31:31;10.80;;;5.50;;
78612;SDS011;67933;51.060;3.638;2023-12-14T04:33:57;12.18;;;5.07;;
78612;SDS011;67933;51.060;3.638;2023-12-14T04:36:22;12.07;;;5.15;;
78612;SDS011;67933;51.060;3.638;2023-12-14T04:38:47;10.32;;;5.75;;
78612;SDS011;67933;51.060;3.638;2023-12-14T04:41:13;10.77;;;5.78;;
78612;SDS011;67933;51.060;3.638;2023-12-14T04:43:39;12.55;;;6.03;;
78612;SDS011;67933;51.060;3.638;2023-12-14T04:46:04;11.18;;;5.80;;
78612;SDS011;67933;51.060;3.638;2023-12-14T04:48:31;12.02;;;5.47;;
78612;SDS011;67933;51.060;3.638;2023-12-14T04:50:57;13.88;;;6.47;;
78612;SDS011;67933;51.060;3.638;2023-12-14T04:53:22;13.68;;;6.75;;
78612;SDS011;67933;51.060;3.638;2023-12-14T04:55:47;15.55;;;5.88;;
78612;SDS011;67933;51.060;3.638;2023-12-14T04:58:13;13.90;;;5.90;;
78612;SDS011;67933;51.060;3.638;2023-12-14T05:00:38;10.75;;;5.63;;
78612;SDS011;67933;51.060;3.638;2023-12-14T05:03:03;11.43;;;6.00;;
78612;SDS011;67933;51.060;3.638;2023-12-14T05:05:29;12.20;;;5.88;;
78612;SDS011;67933;51.060;3.638;2023-12-14T05:07:54;13.13;;;5.93;;
78612;SDS011;67933;51.060;3.638;2023-12-14T05:10:20;14.68;;;5.63;;
78612;SDS011;67933;51.060;3.638;2023-12-14T05:12:45;12.75;;;5.10;;
78612;SDS011;67933;51.060;3.638;2023-12-14T05:15:10;11.80;;;5.65;;
78612;SDS011;67933;51.060;3.638;2023-12-14T05:17:36;13.88;;;5.45;;
78612;SDS011;67933;51.060;3.638;2023-12-14T05:20:02;12.68;;;5.88;;
78612;SDS011;67933;51.060;3.638;2023-12-14T05:22:33;10.80;;;5.28;;
78612;SDS011;67933;51.060;3.638;2023-12-14T05:24:58;11.57;;;6.13;;
78612;SDS011;67933;51.060;3.638;2023-12-14T05:27:24;18.98;;;5.55;;
78612;SDS011;67933;51.060;3.638;2023-12-14T05:29:50;13.85;;;5.65;;
78612;SDS011;67933;51.060;3.638;2023-12-14T05:32:15;14.02;;;5.60;;
78612;SDS011;67933;51.060;3.638;2023-12-14T05:34:41;13.40;;;6.88;;
78612;SDS011;67933;51.060;3.638;2023-12-14T05:37:06;10.63;;;4.85;;
78612;SDS011;67933;51.060;3.638;2023-12-14T05:39:31;11.20;;;5.13;;
78612;SDS011;67933;51.060;3.638;2023-12-14T05:41:57;14.48;;;5.85;;
78612;SDS011;67933;51.060;3.638;2023-12-14T05:44:23;11.55;;;6.07;;
78612;SDS011;67933;51.060;3.638;2023-12-14T05:46:49;10.07;;;5.07;;
78612;SDS011;67933;51.060;3.638;2023-12-14T05:49:15;13.27;;;5.25;;
78612;SDS011;67933;51.060;3.638;2023-12-14T05:51:40;13.43;;;5.72;;
78612;SDS011;67933;51.060;3.638;2023-12-14T05:54:06;10.98;;;5.20;;
78612;SDS011;67933;51.060;3.638;2023-12-14T05:56:31;12.25;;;4.85;;
78612;SDS011;67933;51.060;3.638;2023-12-14T05:58:57;9.43;;;5.78;;
78612;SDS011;67933;51.060;3.638;2023-12-14T06:01:24;9.65;;;5.05;;
78612;SDS011;67933;51.060;3.638;2023-12-14T06:03:50;12.05;;;5.55;;
78612;SDS011;67933;51.060;3.638;2023-12-14T06:06:15;11.35;;;5.15;;
78612;SDS011;67933;51.060;3.638;2023-12-14T06:08:41;9.32;;;4.70;;
78612;SDS011;67933;51.060;3.638;2023-12-14T06:11:07;11.40;;;4.97;;
78612;SDS011;67933;51.060;3.638;2023-12-14T06:13:33;8.88;;;4.45;;
78612;SDS011;67933;51.060;3.638;2023-12-14T06:15:59;9.90;;;4.82;;
78612;SDS011;67933;51.060;3.638;2023-12-14T06:18:25;10.20;;;4.47;;
78612;SDS011;67933;51.060;3.638;2023-12-14T06:20:50;9.75;;;5.00;;
78612;SDS011;67933;51.060;3.638;2023-12-14T06:23:16;11.38;;;5.07;;
78612;SDS011;67933;51.060;3.638;2023-12-14T06:25:42;13.95;;;5.47;;
78612;SDS011;67933;51.060;3.638;2023-12-14T06:28:07;10.80;;;5.82;;
78612;SDS011;67933;51.060;3.638;2023-12-14T06:30:33;8.70;;;4.78;;
78612;SDS011;67933;51.060;3.638;2023-12-14T06:32:58;13.77;;;5.57;;
78612;SDS011;67933;51.060;3.638;2023-12-14T06:35:24;10.65;;;5.05;;
78612;SDS011;67933;51.060;3.638;2023-12-14T06:37:49;13.95;;;5.70;;
78612;SDS011;67933;51.060;3.638;2023-12-14T06:40:15;12.15;;;5.70;;
78612;SDS011;67933;51.060;3.638;2023-12-14T06:42:40;10.77;;;5.28;;
78612;SDS011;67933;51.060;3.638;2023-12-14T06:45:07;9.65;;;5.13;;
78612;SDS011;67933;51.060;3.638;2023-12-14T06:47:33;12.13;;;5.57;;
78612;SDS011;67933;51.060;3.638;2023-12-14T06:49:58;9.52;;;4.97;;
78612;SDS011;67933;51.060;3.638;2023-12-14T06:52:24;11.65;;;5.43;;
78612;SDS011;67933;51.060;3.638;2023-12-14T06:54:49;10.85;;;5.53;;
78612;SDS011;67933;51.060;3.638;2023-12-14T06:57:15;14.50;;;6.50;;
78612;SDS011;67933;51.060;3.638;2023-12-14T06:59:40;12.27;;;6.75;;
78612;SDS011;67933;51.060;3.638;2023-12-14T07:02:06;14.80;;;6.63;;
78612;SDS011;67933;51.060;3.638;2023-12-14T07:04:32;13.40;;;6.35;;
78612;SDS011;67933;51.060;3.638;2023-12-14T07:06:57;14.32;;;5.68;;
78612;SDS011;67933;51.060;3.638;2023-12-14T07:09:23;13.15;;;5.68;;
78612;SDS011;67933;51.060;3.638;2023-12-14T07:11:49;11.75;;;4.75;;
78612;SDS011;67933;51.060;3.638;2023-12-14T07:14:15;12.00;;;5.50;;
78612;SDS011;67933;51.060;3.638;2023-12-14T07:16:40;10.23;;;5.03;;
78612;SDS011;67933;51.060;3.638;2023-12-14T07:19:06;12.02;;;5.35;;
78612;SDS011;67933;51.060;3.638;2023-12-14T07:21:32;9.05;;;5.00;;
78612;SDS011;67933;51.060;3.638;2023-12-14T07:23:57;9.13;;;4.40;;
78612;SDS011;67933;51.060;3.638;2023-12-14T07:26:24;12.50;;;4.97;;
78612;SDS011;67933;51.060;3.638;2023-12-14T07:28:49;10.32;;;5.15;;
78612;SDS011;67933;51.060;3.638;2023-12-14T07:31:16;8.13;;;4.45;;
78612;SDS011;67933;51.060;3.638;2023-12-14T07:33:42;8.93;;;4.60;;
78612;SDS011;67933;51.060;3.638;2023-12-14T07:36:08;8.57;;;5.20;;
78612;SDS011;67933;51.060;3.638;2023-12-14T07:38:33;10.98;;;5.30;;
78612;SDS011;67933;51.060;3.638;2023-12-14T07:40:59;10.13;;;4.60;;
78612;SDS011;67933;51.060;3.638;2023-12-14T07:43:24;10.88;;;5.38;;
78612;SDS011;67933;51.060;3.638;2023-12-14T07:45:49;12.13;;;5.10;;
78612;SDS011;67933;51.060;3.638;2023-12-14T07:48:15;12.68;;;5.90;;
78612;SDS011;67933;51.060;3.638;2023-12-14T07:50:40;13.93;;;5.72;;
78612;SDS011;67933;51.060;3.638;2023-12-14T07:53:06;12.50;;;5.75;;
78612;SDS011;67933;51.060;3.638;2023-12-14T07:55:31;15.35;;;6.35;;
78612;SDS011;67933;51.060;3.638;2023-12-14T07:57:56;17.45;;;6.13;;
78612;SDS011;67933;51.060;3.638;2023-12-14T08:00:22;14.43;;;5.63;;
78612;SDS011;67933;51.060;3.638;2023-12-14T08:02:47;11.52;;;5.50;;
78612;SDS011;67933;51.060;3.638;2023-12-14T08:05:12;16.63;;;6.13;;
78612;SDS011;67933;51.060;3.638;2023-12-14T08:07:38;11.45;;;5.40;;
78612;SDS011;67933;51.060;3.638;2023-12-14T08:10:03;14.40;;;5.47;;
78612;SDS011;67933;51.060;3.638;2023-12-14T08:12:29;16.67;;;6.10;;
78612;SDS011;67933;51.060;3.638;2023-12-14T08:14:55;11.15;;;5.47;;
78612;SDS011;67933;51.060;3.638;2023-12-14T08:17:20;12.25;;;5.47;;
78612;SDS011;67933;51.060;3.638;2023-12-14T08:19:46;12.57;;;5.72;;
78612;SDS011;67933;51.060;3.638;2023-12-14T08:22:12;8.02;;;4.47;;
78612;SDS011;67933;51.060;3.638;2023-12-14T08:24:41;10.95;;;5.60;;
78612;SDS011;67933;51.060;3.638;2023-12-14T08:27:07;10.20;;;4.78;;
78612;SDS011;67933;51.060;3.638;2023-12-14T08:29:32;11.38;;;5.28;;
78612;SDS011;67933;51.060;3.638;2023-12-14T08:31:58;11.90;;;5.43;;
78612;SDS011;67933;51.060;3.638;2023-12-14T08:34:27;13.80;;;6.50;;
78612;SDS011;67933;51.060;3.638;2023-12-14T08:36:55;14.10;;;6.00;;
78612;SDS011;67933;51.060;3.638;2023-12-14T08:39:20;12.40;;;5.35;;
78612;SDS011;67933;51.060;3.638;2023-12-14T08:41:46;10.88;;;5.55;;
78612;SDS011;67933;51.060;3.638;2023-12-14T08:44:13;10.43;;;5.20;;
78612;SDS011;67933;51.060;3.638;2023-12-14T08:46:45;8.32;;;4.60;;
78612;SDS011;67933;51.060;3.638;2023-12-14T08:49:12;14.48;;;4.75;;
78612;SDS011;67933;51.060;3.638;2023-12-14T08:51:38;11.88;;;5.00;;
78612;SDS011;67933;51.060;3.638;2023-12-14T08:54:05;11.40;;;5.55;;
78612;SDS011;67933;51.060;3.638;2023-12-14T08:56:31;11.82;;;4.95;;
78612;SDS011;67933;51.060;3.638;2023-12-14T08:58:56;13.27;;;5.30;;
78612;SDS011;67933;51.060;3.638;2023-12-14T09:01:24;12.65;;;5.47;;
78612;SDS011;67933;51.060;3.638;2023-12-14T09:03:49;10.77;;;5.15;;
78612;SDS011;67933;51.060;3.638;2023-12-14T09:06:16;13.43;;;5.13;;
78612;SDS011;67933;51.060;3.638;2023-12-14T09:08:43;12.35;;;4.72;;
78612;SDS011;67933;51.060;3.638;2023-12-14T09:11:09;16.92;;;4.97;;
78612;SDS011;67933;51.060;3.638;2023-12-14T09:13:35;12.90;;;4.75;;
78612;SDS011;67933;51.060;3.638;2023-12-14T09:16:01;11.55;;;4.85;;
78612;SDS011;67933;51.060;3.638;2023-12-14T09:18:26;11.65;;;4.60;;
78612;SDS011;67933;51.060;3.638;2023-12-14T09:20:52;11.35;;;5.03;;
78612;SDS011;67933;51.060;3.638;2023-12-14T09:23:17;10.50;;;4.53;;
78612;SDS011;67933;51.060;3.638;2023-12-14T09:25:44;13.60;;;5.38;;
78612;SDS011;67933;51.060;3.638;2023-12-14T09:28:10;10.10;;;4.70;;
78612;SDS011;67933;51.060;3.638;2023-12-14T09:30:35;12.15;;;5.20;;
78612;SDS011;67933;51.060;3.638;2023-12-14T09:33:01;11.95;;;4.35;;
78612;SDS011;67933;51.060;3.638;2023-12-14T09:35:26;11.10;;;5.03;;
78612;SDS011;67933;51.060;3.638;2023-12-14T09:37:52;9.23;;;4.28;;
78612;SDS011;67933;51.060;3.638;2023-12-14T09:40:18;9.30;;;4.82;;
78612;SDS011;67933;51.060;3.638;2023-12-14T09:42:44;12.27;;;5.32;;
78612;SDS011;67933;51.060;3.638;2023-12-14T09:45:10;13.38;;;4.68;;
78612;SDS011;67933;51.060;3.638;2023-12-14T09:47:36;11.38;;;5.32;;
78612;SDS011;67933;51.060;3.638;2023-12-14T09:50:03;11.20;;;5.05;;
78612;SDS011;67933;51.060;3.638;2023-12-14T09:52:30;7.35;;;4.15;;
78612;SDS011;67933;51.060;3.638;2023-12-14T09:54:56;10.13;;;4.80;;
78612;SDS011;67933;51.060;3.638;2023-12-14T09:57:21;13.50;;;5.25;;
78612;SDS011;67933;51.060;3.638;2023-12-14T09:59:51;14.10;;;5.40;;
78612;SDS011;67933;51.060;3.638;2023-12-14T10:02:20;9.75;;;5.07;;
78612;SDS011;67933;51.060;3.638;2023-12-14T10:04:50;9.80;;;4.90;;
78612;SDS011;67933;51.060;3.638;2023-12-14T10:07:16;10.50;;;5.28;;
78612;SDS011;67933;51.060;3.638;2023-12-14T10:09:41;10.43;;;5.22;;
78612;SDS011;67933;51.060;3.638;2023-12-14T10:12:08;9.73;;;5.55;;
78612;SDS011;67933;51.060;3.638;2023-12-14T10:14:35;14.63;;;5.15;;
78612;SDS011;67933;51.060;3.638;2023-12-14T10:17:17;15.88;;;6.35;;
78612;SDS011;67933;51.060;3.638;2023-12-14T10:19:47;10.43;;;5.32;;
78612;SDS011;67933;51.060;3.638;2023-12-14T10:22:16;13.75;;;6.32;;
78612;SDS011;67933;51.060;3.638;2023-12-14T10:24:51;11.90;;;5.72;;
78612;SDS011;67933;51.060;3.638;2023-12-14T10:27:17;16.83;;;6.43;;
78612;SDS011;67933;51.060;3.638;2023-12-14T10:29:43;17.15;;;7.13;;
78612;SDS011;67933;51.060;3.638;2023-12-14T10:32:10;14.75;;;6.13;;
78612;SDS011;67933;51.060;3.638;2023-12-14T10:34:37;16.25;;;5.82;;
78612;SDS011;67933;51.060;3.638;2023-12-14T10:37:06;16.20;;;6.85;;
78612;SDS011;67933;51.060;3.638;2023-12-14T10:39:34;17.92;;;6.97;;
78612;SDS011;67933;51.060;3.638;2023-12-14T10:42:02;14.48;;;6.72;;
78612;SDS011;67933;51.060;3.638;2023-12-14T10:44:28;15.57;;;6.20;;
78612;SDS011;67933;51.060;3.638;2023-12-14T10:46:58;14.75;;;8.73;;
78612;SDS011;67933;51.060;3.638;2023-12-14T10:49:24;18.83;;;7.20;;
78612;SDS011;67933;51.060;3.638;2023-12-14T10:51:54;11.27;;;6.00;;
78612;SDS011;67933;51.060;3.638;2023-12-14T10:54:23;14.05;;;6.10;;
78612;SDS011;67933;51.060;3.638;2023-12-14T10:56:50;17.05;;;6.95;;
78612;SDS011;67933;51.060;3.638;2023-12-14T10:59:21;12.70;;;6.18;;
78612;SDS011;67933;51.060;3.638;2023-12-14T11:01:51;19.67;;;9.10;;
78612;SDS011;67933;51.060;3.638;2023-12-14T11:04:23;39.38;;;21.13;;
78612;SDS011;67933;51.060;3.638;2023-12-14T11:06:49;49.78;;;28.35;;
78612;SDS011;67933;51.060;3.638;2023-12-14T11:09:16;24.55;;;11.60;;
78612;SDS011;67933;51.060;3.638;2023-12-14T11:14:18;37.88;;;22.52;;
78612;SDS011;67933;51.060;3.638;2023-12-14T11:16:47;36.72;;;23.27;;
78612;SDS011;67933;51.060;3.638;2023-12-14T11:24:22;15.45;;;6.97;;
78612;SDS011;67933;51.060;3.638;2023-12-14T11:26:51;12.60;;;5.10;;
78612;SDS011;67933;51.060;3.638;2023-12-14T11:29:17;11.13;;;5.22;;
78612;SDS011;67933;51.060;3.638;2023-12-14T11:31:44;11.07;;;5.40;;
78612;SDS011;67933;51.060;3.638;2023-12-14T11:34:10;9.32;;;4.63;;
78612;SDS011;67933;51.060;3.638;2023-12-14T11:36:36;10.88;;;4.72;;
78612;SDS011;67933;51.060;3.638;2023-12-14T11:39:04;12.85;;;4.88;;
78612;SDS011;67933;51.060;3.638;2023-12-14T11:41:30;13.77;;;5.50;;
78612;SDS011;67933;51.060;3.638;2023-12-14T11:43:58;13.43;;;5.35;;
78612;SDS011;67933;51.060;3.638;2023-12-14T11:46:24;10.32;;;5.07;;
78612;SDS011;67933;51.060;3.638;2023-12-14T11:48:49;13.30;;;5.32;;
78612;SDS011;67933;51.060;3.638;2023-12-14T11:51:15;11.45;;;5.25;;
78612;SDS011;67933;51.060;3.638;2023-12-14T11:53:43;8.55;;;4.55;;
78612;SDS011;67933;51.060;3.638;2023-12-14T11:56:10;10.25;;;5.07;;
78612;SDS011;67933;51.060;3.638;2023-12-14T11:58:36;11.23;;;5.13;;
78612;SDS011;67933;51.060;3.638;2023-12-14T12:01:15;9.68;;;5.47;;
78612;SDS011;67933;51.060;3.638;2023-12-14T12:03:41;9.10;;;4.47;;
78612;SDS011;67933;51.060;3.638;2023-12-14T12:06:09;10.45;;;4.55;;
78612;SDS011;67933;51.060;3.638;2023-12-14T12:08:53;17.27;;;9.77;;
78612;SDS011;67933;51.060;3.638;2023-12-14T12:11:19;15.18;;;9.32;;
78612;SDS011;67933;51.060;3.638;2023-12-14T12:13:56;13.48;;;7.40;;
78612;SDS011;67933;51.060;3.638;2023-12-14T12:16:22;16.88;;;7.18;;
78612;SDS011;67933;51.060;3.638;2023-12-14T12:18:49;13.02;;;9.02;;
78612;SDS011;67933;51.060;3.638;2023-12-14T12:21:16;16.65;;;9.27;;
78612;SDS011;67933;51.060;3.638;2023-12-14T12:23:42;12.23;;;6.63;;
78612;SDS011;67933;51.060;3.638;2023-12-14T12:26:08;10.07;;;4.85;;
78612;SDS011;67933;51.060;3.638;2023-12-14T12:28:34;8.13;;;4.60;;
78612;SDS011;67933;51.060;3.638;2023-12-14T12:30:59;8.25;;;4.53;;
78612;SDS011;67933;51.060;3.638;2023-12-14T12:33:25;9.70;;;4.53;;
78612;SDS011;67933;51.060;3.638;2023-12-14T12:35:51;13.82;;;5.07;;
78612;SDS011;67933;51.060;3.638;2023-12-14T12:38:16;12.68;;;3.80;;
78612;SDS011;67933;51.060;3.638;2023-12-14T12:40:43;10.95;;;4.10;;
78612;SDS011;67933;51.060;3.638;2023-12-14T12:43:09;7.30;;;4.22;;
78612;SDS011;67933;51.060;3.638;2023-12-14T12:45:35;8.63;;;4.07;;
78612;SDS011;67933;51.060;3.638;2023-12-14T12:48:01;9.77;;;4.60;;
78612;SDS011;67933;51.060;3.638;2023-12-14T12:50:29;7.82;;;3.92;;
78612;SDS011;67933;51.060;3.638;2023-12-14T12:52:55;6.97;;;2.83;;
78612;SDS011;67933;51.060;3.638;2023-12-14T12:55:20;8.02;;;3.53;;
78612;SDS011;67933;51.060;3.638;2023-12-14T12:57:46;5.50;;;1.98;;
78612;SDS011;67933;51.060;3.638;2023-12-14T13:00:13;7.72;;;2.72;;
78612;SDS011;67933;51.060;3.638;2023-12-14T13:02:39;6.47;;;2.88;;
78612;SDS011;67933;51.060;3.638;2023-12-14T13:05:06;6.95;;;2.30;;
78612;SDS011;67933;51.060;3.638;2023-12-14T13:07:34;5.50;;;1.83;;
78612;SDS011;67933;51.060;3.638;2023-12-14T13:10:01;6.63;;;1.70;;
78612;SDS011;67933;51.060;3.638;2023-12-14T13:12:27;5.45;;;1.42;;
78612;SDS011;67933;51.060;3.638;2023-12-14T13:14:53;5.45;;;1.60;;
78612;SDS011;67933;51.060;3.638;2023-12-14T13:17:19;5.40;;;1.80;;
78612;SDS011;67933;51.060;3.638;2023-12-14T13:19:44;4.05;;;1.30;;
78612;SDS011;67933;51.060;3.638;2023-12-14T13:22:10;7.53;;;1.63;;
78612;SDS011;67933;51.060;3.638;2023-12-14T13:24:38;4.10;;;1.20;;
78612;SDS011;67933;51.060;3.638;2023-12-14T13:27:04;3.05;;;1.00;;
78612;SDS011;67933;51.060;3.638;2023-12-14T13:29:30;3.42;;;1.08;;
78612;SDS011;67933;51.060;3.638;2023-12-14T13:31:57;4.97;;;1.50;;
78612;SDS011;67933;51.060;3.638;2023-12-14T13:34:24;6.43;;;1.13;;
78612;SDS011;67933;51.060;3.638;2023-12-14T13:36:49;3.72;;;1.20;;
78612;SDS011;67933;51.060;3.638;2023-12-14T13:39:15;4.95;;;1.73;;
78612;SDS011;67933;51.060;3.638;2023-12-14T13:41:40;3.20;;;1.10;;
78612;SDS011;67933;51.060;3.638;2023-12-14T13:44:06;5.30;;;1.55;;
78612;SDS011;67933;51.060;3.638;2023-12-14T13:46:31;4.30;;;1.05;;
78612;SDS011;67933;51.060;3.638;2023-12-14T13:48:56;2.83;;;0.98;;
78612;SDS011;67933;51.060;3.638;2023-12-14T13:51:22;4.03;;;1.00;;
78612;SDS011;67933;51.060;3.638;2023-12-14T13:53:47;4.43;;;1.20;;
78612;SDS011;67933;51.060;3.638;2023-12-14T13:56:13;2.50;;;1.00;;
78612;SDS011;67933;51.060;3.638;2023-12-14T13:58:38;2.60;;;0.90;;
78612;SDS011;67933;51.060;3.638;2023-12-14T14:01:07;4.20;;;1.25;;
78612;SDS011;67933;51.060;3.638;2023-12-14T14:03:33;4.13;;;1.20;;
78612;SDS011;67933;51.060;3.638;2023-12-14T14:06:00;5.53;;;1.17;;
78612;SDS011;67933;51.060;3.638;2023-12-14T14:08:27;2.33;;;0.90;;
78612;SDS011;67933;51.060;3.638;2023-12-14T14:10:52;1.83;;;0.90;;
78612;SDS011;67933;51.060;3.638;2023-12-14T14:13:17;5.13;;;0.85;;
78612;SDS011;67933;51.060;3.638;2023-12-14T14:15:43;2.85;;;1.20;;
78612;SDS011;67933;51.060;3.638;2023-12-14T14:18:08;4.95;;;1.15;;
78612;SDS011;67933;51.060;3.638;2023-12-14T14:20:34;3.03;;;1.05;;
78612;SDS011;67933;51.060;3.638;2023-12-14T14:23:00;2.58;;;0.90;;
78612;SDS011;67933;51.060;3.638;2023-12-14T14:25:25;5.15;;;1.17;;
78612;SDS011;67933;51.060;3.638;2023-12-14T14:27:51;4.50;;;1.10;;
78612;SDS011;67933;51.060;3.638;2023-12-14T14:30:16;4.20;;;1.25;;
78612;SDS011;67933;51.060;3.638;2023-12-14T14:32:42;1.73;;;1.23;;
78612;SDS011;67933;51.060;3.638;2023-12-14T14:35:08;3.75;;;1.40;;
78612;SDS011;67933;51.060;3.638;2023-12-14T14:37:33;1.85;;;1.05;;